Update: 18-Jul-2024 14:09Z
37°C
WEATHER FORECAST DUBAI WORLD CENTRAL
 
Thursday, July 18, 2024 (14:10 UTC) 14
Al Maktoum International Airport
Last Updated: 18-Jul-2024 (14:09Z)
Wind Dir/Speed: WNW at 10 kt
Temperature: 36.7°C
Rel. Humidity: 58 %
Pressure: 994.8 hPa
Visibility: 6000 m
  • METAR OMDW 181400Z 29010KT 5000 DU NSC 37/28 Q0994 NOSIG
DWC AIRPORT 5 DAY OUTLOOK:

DWC AIRPORT WEATHER FORECAST FOR 30 HOUR:
DWC TAF:
TAF OMDW 181100Z 1812/1918 31011KT 7000 NSC
PROB30 1812/1816 4000 DU
BECMG 1816/1818 19005KT
PROB30 1821/1904 3000 BR
BECMG 1908/1910 30014KT=
VALID FROM:
2024-07-18 12:00Z
VALID TILL:
2024-07-19 18:00Z
SURFACE WIND:
NW'LY 11KT

BECOMING S'LY 05KT FROM 1600Z-1800Z TODAY

BECOMING NW'LY 14KT FROM 0800Z-1000Z FRIDAY.
VISIBILITY:
06-09 KM,
30% PROBABILITY OF 4000 M BETWEEN 1200Z-1600Z TODAY,
30% PROBABILITY OF 3000 M BETWEEN 2100Z TODAY AND 0400Z FRIDAY,
10% PROBABILITY OF 0150 M BETWEEN 2100Z TODAY AND 0400Z FRIDAY. 


WEATHER:
FINE, 
30% PROBABILITY OF DUST BETWEEN 1200Z-1600Z TODAY,
30% PROBABILITY OF MIST BETWEEN 2100Z TODAY AND 0400Z FRIDAY,
10% PROBABILITY OF FOG BETWEEN 2100Z TODAY AND 0400Z FRIDAY.
CLOUD:
NIL SIGNIFICANT. 

TEMPERATURE:
MIN TEMPERATURE 31°C AROUND 0200Z FRIDAY

MAX TEMPERATURE 45°C AROUND 1000Z FRIDAY.
HUMIDITY:
MAX HUMIDITY 90% AROUND 0200Z FRIDAY

MIN HUMIDITY 25% AROUND 1000Z FRIDAY.
WIND SHEAR:
NIL SIGNIFICANT.
TEMPERATURE INVERSION:
NIL SIGNIFICANT.
COMMENTS:
NONE.
18/07/2024